Time;durP1;ratioP1;P1;durP2;ratioP2;P2;SDS_P1;SDS_P2;PMS_P1;PMS_P2;Temp;Humidity;BMP_temperature;BMP_pressure;BME280_temperature;BME280_humidity;BME280_pressure;Samples;Min_cycle;Max_cycle;Signal;HPM_P1;HPM_P2
2023/04/01 00:00:58;;;;;;;7.05;3.35;;;;;;;9.83;100.00;-18292.63;4970143;28;20636;-83
2023/04/01 00:03:25;;;;;;;7.93;4.20;;;;;;;9.83;100.00;-18292.75;4966245;28;20034;-83
2023/04/01 00:05:51;;;;;;;8.75;4.00;;;;;;;9.79;100.00;-18291.53;4973988;28;20039;-83
2023/04/01 00:08:17;;;;;;;6.53;3.97;;;;;;;9.85;100.00;-18293.19;4974048;28;20053;-83
2023/04/01 00:10:42;;;;;;;6.15;4.15;;;;;;;9.86;100.00;-18293.44;4962587;28;20062;-83
2023/04/01 00:13:08;;;;;;;5.55;3.78;;;;;;;9.86;100.00;-18293.44;4972970;28;20047;-83
2023/04/01 00:15:34;;;;;;;8.75;3.80;;;;;;;9.81;100.00;-18292.06;4971791;28;20038;-83
2023/04/01 00:18:00;;;;;;;5.45;3.42;;;;;;;9.80;100.00;-18291.81;4970819;28;20054;-83
2023/04/01 00:20:26;;;;;;;5.78;3.47;;;;;;;9.82;100.00;-18292.34;4973993;28;20046;-83
2023/04/01 00:22:51;;;;;;;5.47;3.30;;;;;;;9.85;100.00;-18293.31;4973129;28;20043;-83
2023/04/01 00:25:17;;;;;;;7.28;3.90;;;;;;;9.92;100.00;-18295.09;4970533;28;20034;-83
2023/04/01 00:27:42;;;;;;;8.85;4.78;;;;;;;9.86;100.00;-18293.44;4961804;28;20075;-83
2023/04/01 00:30:09;;;;;;;6.13;3.80;;;;;;;9.89;100.00;-18294.28;4964075;28;20106;-83
2023/04/01 00:32:35;;;;;;;8.68;4.65;;;;;;;9.89;100.00;-18294.41;4964441;28;20045;-83
2023/04/01 00:35:00;;;;;;;8.90;4.30;;;;;;;9.88;100.00;-18294.00;4959268;28;20039;-84
2023/04/01 00:37:27;;;;;;;4.90;3.85;;;;;;;9.86;100.00;-18293.59;4973567;28;20407;-84
2023/04/01 00:39:54;;;;;;;6.53;4.10;;;;;;;9.86;100.00;-18293.44;4969377;28;20059;-84
2023/04/01 00:42:19;;;;;;;7.82;4.70;;;;;;;9.88;100.00;-18294.00;4954032;28;20134;-83
2023/04/01 00:44:50;;;;;;;5.18;4.40;;;;;;;9.90;100.00;-18294.56;4969397;28;20182;-84
2023/04/01 00:47:15;;;;;;;5.53;4.07;;;;;;;9.85;100.00;-18293.31;4962706;28;20038;-84
2023/04/01 00:49:44;;;;;;;5.10;4.05;;;;;;;9.80;100.00;-18291.81;4969277;28;20106;-84
2023/04/01 00:52:13;;;;;;;6.57;3.85;;;;;;;9.84;100.00;-18292.91;4973730;28;20031;-83
2023/04/01 00:54:42;;;;;;;4.82;3.83;;;;;;;9.84;100.00;-18292.91;4972473;28;20058;-83
2023/04/01 00:57:43;;;;;;;5.85;4.57;;;;;;;9.82;100.00;-18292.50;4979799;28;20038;-83
2023/04/01 01:00:13;;;;;;;5.70;4.60;;;;;;;9.83;100.00;-18292.75;4971158;28;20043;-83
2023/04/01 01:02:42;;;;;;;5.88;4.35;;;;;;;9.76;100.00;-18290.69;4973465;28;20076;-83
2023/04/01 01:05:11;;;;;;;6.82;4.65;;;;;;;9.83;100.00;-18292.75;4980369;28;20047;-83
2023/04/01 01:07:50;;;;;;;6.38;4.07;;;;;;;9.80;100.00;-18291.94;4974052;28;20118;-83
2023/04/01 01:10:26;;;;;;;6.57;4.28;;;;;;;9.75;100.00;-18290.44;4969521;28;20050;-84
2023/04/01 01:13:12;;;;;;;5.35;4.35;;;;;;;9.77;100.00;-18290.97;4950995;28;20055;-83
2023/04/01 01:15:55;;;;;;;8.70;5.50;;;;;;;9.75;100.00;-18290.44;4966817;28;20039;-83
2023/04/01 01:18:33;;;;;;;6.97;4.63;;;;;;;9.79;100.00;-18291.53;4953512;28;20036;-83
2023/04/01 01:21:23;;;;;;;8.73;5.43;;;;;;;9.75;100.00;-18290.56;4953208;28;20078;-83
2023/04/01 01:23:52;;;;;;;9.13;4.75;;;;;;;9.74;100.00;-18290.16;4971424;28;20046;-83
2023/04/01 01:26:46;;;;;;;8.20;4.47;;;;;;;9.68;100.00;-18288.78;4965914;28;20178;-83
2023/04/01 01:29:12;;;;;;;9.05;4.57;;;;;;;9.69;100.00;-18288.91;4944125;28;20039;-83
2023/04/01 01:32:01;;;;;;;6.28;4.70;;;;;;;9.65;100.00;-18287.94;4954780;28;20105;-83
2023/04/01 01:34:49;;;;;;;7.13;4.03;;;;;;;9.62;100.00;-18287.13;4959090;28;20499;-84
2023/04/01 01:37:18;;;;;;;7.57;4.53;;;;;;;9.60;100.00;-18286.44;4980675;28;20054;-84
2023/04/01 01:39:51;;;;;;;7.15;4.57;;;;;;;9.60;100.00;-18286.44;4968924;28;20043;-84
2023/04/01 01:42:20;;;;;;;5.13;4.35;;;;;;;9.63;100.00;-18287.41;4970776;28;20561;-84
2023/04/01 01:44:48;;;;;;;6.10;4.60;;;;;;;9.61;100.00;-18286.72;4969558;28;20034;-84
2023/04/01 01:47:15;;;;;;;4.95;4.28;;;;;;;9.63;100.00;-18287.25;4961816;28;20496;-83
2023/04/01 01:49:43;;;;;;;5.75;3.75;;;;;;;9.58;100.00;-18286.03;4963734;28;20050;-83
2023/04/01 01:52:08;;;;;;;6.70;3.95;;;;;;;9.56;100.00;-18285.47;4966937;28;20066;-83
2023/04/01 01:54:34;;;;;;;4.10;3.70;;;;;;;9.56;100.00;-18285.34;4960607;28;20066;-84
2023/04/01 01:57:10;;;;;;;7.72;4.32;;;;;;;9.55;100.00;-18285.19;4967033;28;20500;-83
2023/04/01 01:59:39;;;;;;;5.15;4.30;;;;;;;9.58;100.00;-18286.03;4962519;28;20117;-84
2023/04/01 02:02:07;;;;;;;6.00;4.35;;;;;;;9.63;100.00;-18287.41;4957393;28;20073;-83
2023/04/01 02:04:40;;;;;;;6.05;4.07;;;;;;;9.65;100.00;-18287.81;4955792;28;20051;-84
2023/04/01 02:07:30;;;;;;;7.00;4.10;;;;;;;9.48;100.00;-18283.41;4965870;28;20054;-84
2023/04/01 02:09:56;;;;;;;6.15;4.22;;;;;;;9.44;100.00;-18282.31;4961438;28;20039;-83
2023/04/01 02:12:23;;;;;;;9.40;4.90;;;;;;;9.47;100.00;-18283.13;4964343;28;20569;-84
2023/04/01 02:15:05;;;;;;;8.95;4.20;;;;;;;9.51;100.00;-18284.09;4961666;28;20074;-83
2023/04/01 02:17:33;;;;;;;7.50;4.07;;;;;;;9.47;100.00;-18283.00;4965699;28;20034;-84
2023/04/01 02:20:04;;;;;;;8.27;4.10;;;;;;;9.45;100.00;-18282.44;4968488;28;20688;-84
2023/04/01 02:22:33;;;;;;;8.43;4.63;;;;;;;9.48;100.00;-18283.28;4963649;28;20042;-83
2023/04/01 02:25:04;;;;;;;6.15;4.75;;;;;;;9.52;100.00;-18284.38;4964548;28;20043;-84
2023/04/01 02:27:31;;;;;;;6.57;3.90;;;;;;;9.51;100.00;-18284.09;4953269;28;20407;-83
2023/04/01 02:29:57;;;;;;;7.03;4.53;;;;;;;9.51;100.00;-18283.97;4957638;28;20043;-83
2023/04/01 02:32:24;;;;;;;7.30;4.68;;;;;;;9.51;100.00;-18284.09;4967970;28;20058;-84
2023/04/01 02:34:51;;;;;;;10.95;4.97;;;;;;;9.45;100.00;-18282.44;4962908;28;20047;-83
2023/04/01 02:37:17;;;;;;;7.70;4.85;;;;;;;9.48;100.00;-18283.41;4960536;28;20049;-83
2023/04/01 02:39:43;;;;;;;8.23;6.40;;;;;;;9.51;100.00;-18284.09;4965287;28;20039;-84
2023/04/01 02:42:09;;;;;;;7.38;5.00;;;;;;;9.50;100.00;-18283.81;4952762;28;20258;-83
2023/04/01 02:44:34;;;;;;;8.27;6.15;;;;;;;9.48;100.00;-18283.28;4957492;28;20039;-83
2023/04/01 02:47:00;;;;;;;8.00;5.88;;;;;;;9.48;100.00;-18283.28;4953899;28;20045;-84
2023/04/01 02:49:25;;;;;;;7.47;5.43;;;;;;;9.54;100.00;-18284.94;4965090;28;20047;-84
2023/04/01 02:51:51;;;;;;;9.90;5.63;;;;;;;9.53;100.00;-18284.50;4961184;28;20055;-84
2023/04/01 02:54:17;;;;;;;10.23;6.32;;;;;;;9.53;100.00;-18284.66;4957353;28;20513;-84
2023/04/01 02:56:43;;;;;;;9.00;6.43;;;;;;;9.55;100.00;-18285.19;4960296;28;20053;-84
2023/04/01 02:59:08;;;;;;;7.50;5.22;;;;;;;9.55;100.00;-18285.19;4964652;28;20035;-84
2023/04/01 03:01:34;;;;;;;8.05;6.43;;;;;;;9.57;100.00;-18285.75;4960406;28;20051;-83
2023/04/01 03:03:59;;;;;;;9.02;5.88;;;;;;;9.60;100.00;-18286.44;4971128;28;20130;-83
2023/04/01 03:06:25;;;;;;;7.95;6.28;;;;;;;9.61;100.00;-18286.72;4965573;28;20039;-86
2023/04/01 03:08:50;;;;;;;8.27;6.30;;;;;;;9.61;100.00;-18286.84;4978397;28;20042;-84
2023/04/01 03:11:15;;;;;;;10.35;6.43;;;;;;;9.63;100.00;-18287.41;4977741;28;20034;-84
2023/04/01 03:13:41;;;;;;;9.82;7.15;;;;;;;9.58;100.00;-18286.03;4956737;28;20704;-83
2023/04/01 03:16:06;;;;;;;8.48;5.60;;;;;;;9.55;100.00;-18285.19;4961116;28;20042;-89
2023/04/01 03:18:32;;;;;;;9.00;6.47;;;;;;;9.60;100.00;-18286.44;4958547;28;20519;-85
2023/04/01 03:21:21;;;;;;;9.23;6.03;;;;;;;9.58;100.00;-18285.88;4966278;28;20043;-83
2023/04/01 03:23:47;;;;;;;9.95;6.97;;;;;;;9.57;100.00;-18285.75;4957354;28;20141;-84
2023/04/01 03:26:13;;;;;;;11.02;7.53;;;;;;;9.51;100.00;-18284.09;4959335;28;20495;-83
2023/04/01 03:28:39;;;;;;;9.20;7.13;;;;;;;9.53;100.00;-18284.50;4959450;28;20154;-86
2023/04/01 03:31:04;;;;;;;11.57;7.85;;;;;;;9.53;100.00;-18284.66;4954052;28;20035;-84
2023/04/01 03:33:31;;;;;;;10.95;8.18;;;;;;;9.55;100.00;-18285.06;4956708;28;21409;-83
2023/04/01 03:35:56;;;;;;;12.65;8.25;;;;;;;9.54;100.00;-18284.94;4951207;28;20067;-83
2023/04/01 03:38:21;;;;;;;11.77;7.07;;;;;;;9.56;100.00;-18285.47;4966890;28;20605;-84
2023/04/01 03:40:47;;;;;;;7.75;5.70;;;;;;;9.54;100.00;-18284.78;4958674;28;20051;-84
2023/04/01 03:43:12;;;;;;;10.57;7.15;;;;;;;9.51;100.00;-18283.97;4964962;28;20494;-84
2023/04/01 03:45:45;;;;;;;11.77;7.78;;;;;;;9.53;100.00;-18284.50;4957743;28;20434;-84
2023/04/01 03:48:10;;;;;;;11.65;8.32;;;;;;;9.56;100.00;-18285.34;4958077;28;20043;-84
2023/04/01 03:50:36;;;;;;;10.82;7.75;;;;;;;9.55;100.00;-18285.19;4958149;28;20399;-84
2023/04/01 03:53:01;;;;;;;8.77;6.50;;;;;;;9.59;100.00;-18286.16;4951177;28;20106;-87
2023/04/01 03:55:26;;;;;;;13.25;9.05;;;;;;;9.48;100.00;-18283.41;4962721;28;20055;-83
2023/04/01 03:57:52;;;;;;;14.48;8.23;;;;;;;9.44;100.00;-18282.19;4959210;28;20038;-83
2023/04/01 04:00:17;;;;;;;10.25;6.38;;;;;;;9.48;100.00;-18283.28;4962284;28;20520;-86
2023/04/01 04:02:43;;;;;;;12.30;8.10;;;;;;;9.46;100.00;-18282.88;4951864;28;20084;-85
2023/04/01 04:05:08;;;;;;;13.10;9.25;;;;;;;9.48;100.00;-18283.41;4958346;28;20144;-85
2023/04/01 04:07:36;;;;;;;13.93;9.05;;;;;;;9.50;100.00;-18283.81;4962294;28;20051;-84
2023/04/01 04:10:03;;;;;;;12.65;9.15;;;;;;;9.49;100.00;-18283.56;4958813;28;20584;-84
2023/04/01 04:12:28;;;;;;;14.55;10.15;;;;;;;9.50;100.00;-18283.81;4972443;28;20047;-85
2023/04/01 04:14:53;;;;;;;15.30;10.10;;;;;;;9.56;100.00;-18285.47;4974000;28;20105;-84
2023/04/01 04:17:19;;;;;;;15.45;9.23;;;;;;;9.63;100.00;-18287.41;4959426;28;20043;-84
2023/04/01 04:19:44;;;;;;;13.98;9.07;;;;;;;9.60;100.00;-18286.56;4961377;28;20047;-85
2023/04/01 04:22:09;;;;;;;15.10;9.45;;;;;;;9.60;100.00;-18286.56;4966103;28;20045;-85
2023/04/01 04:24:35;;;;;;;13.25;8.65;;;;;;;9.55;100.00;-18285.19;4967430;28;20054;-85
2023/04/01 04:27:01;;;;;;;13.25;7.93;;;;;;;9.60;100.00;-18286.56;4956058;28;20046;-85
2023/04/01 04:29:26;;;;;;;14.00;9.00;;;;;;;9.61;100.00;-18286.84;4956848;28;20051;-84
2023/04/01 04:31:52;;;;;;;15.85;10.95;;;;;;;9.68;100.00;-18288.78;4966426;28;20038;-84
2023/04/01 04:34:18;;;;;;;13.75;9.30;;;;;;;9.66;100.00;-18288.22;4970409;28;20131;-84
2023/04/01 04:36:44;;;;;;;11.95;7.97;;;;;;;9.65;100.00;-18287.94;4964190;28;20062;-84
2023/04/01 04:39:09;;;;;;;17.17;10.90;;;;;;;9.68;100.00;-18288.78;4978624;28;20122;-84
2023/04/01 04:41:37;;;;;;;16.83;8.93;;;;;;;9.67;100.00;-18288.38;4964568;28;20085;-84
2023/04/01 04:44:03;;;;;;;15.75;9.77;;;;;;;9.68;100.00;-18288.78;4956250;28;20110;-84
2023/04/01 04:46:28;;;;;;;16.27;9.65;;;;;;;9.52;100.00;-18284.38;4978067;28;20039;-84
2023/04/01 04:48:54;;;;;;;16.13;10.10;;;;;;;9.50;100.00;-18283.81;4976855;28;20078;-84
2023/04/01 04:51:20;;;;;;;15.43;8.68;;;;;;;9.44;100.00;-18282.31;4962892;28;20051;-84
2023/04/01 04:53:45;;;;;;;15.15;9.32;;;;;;;9.43;100.00;-18281.91;4962592;28;20130;-84
2023/04/01 04:56:11;;;;;;;14.85;9.05;;;;;;;9.42;100.00;-18281.75;4965992;28;20031;-84
2023/04/01 04:58:38;;;;;;;14.75;9.27;;;;;;;9.48;100.00;-18283.28;4958141;28;20581;-81
2023/04/01 05:01:10;;;;;;;12.63;8.73;;;;;;;9.38;100.00;-18280.53;4952087;28;20049;-84
2023/04/01 05:03:37;;;;;;;13.85;8.98;;;;;;;9.37;100.00;-18280.25;4963614;28;20102;-84
2023/04/01 05:06:02;;;;;;;13.25;8.52;;;;;;;9.36;100.00;-18279.97;4951996;28;20069;-85
2023/04/01 05:08:28;;;;;;;15.77;9.40;;;;;;;9.34;100.00;-18279.56;4951718;28;20055;-84
2023/04/01 05:10:54;;;;;;;15.48;9.65;;;;;;;9.38;100.00;-18280.53;4952760;28;20122;-83
2023/04/01 05:13:19;;;;;;;13.15;8.27;;;;;;;9.33;100.00;-18279.28;4947868;28;20055;-85
2023/04/01 05:15:45;;;;;;;14.18;9.05;;;;;;;9.34;100.00;-18279.56;4960680;28;20836;-85
2023/04/01 05:18:10;;;;;;;13.18;8.05;;;;;;;9.37;100.00;-18280.38;4950804;28;20043;-85
2023/04/01 05:20:35;;;;;;;14.00;9.20;;;;;;;9.35;100.00;-18279.69;4947445;28;20047;-85
2023/04/01 05:23:01;;;;;;;14.10;9.25;;;;;;;9.41;100.00;-18281.34;4960619;28;20043;-85
2023/04/01 05:25:26;;;;;;;18.13;9.82;;;;;;;9.39;100.00;-18280.81;4962802;28;20047;-83
2023/04/01 05:27:52;;;;;;;14.43;8.90;;;;;;;9.38;100.00;-18280.53;4953471;28;20134;-85
2023/04/01 05:30:17;;;;;;;16.63;10.02;;;;;;;9.40;100.00;-18281.06;4949084;28;20046;-84
2023/04/01 05:32:43;;;;;;;15.10;10.00;;;;;;;9.42;100.00;-18281.75;4953241;28;20039;-82
2023/04/01 05:35:09;;;;;;;16.67;9.73;;;;;;;9.40;100.00;-18281.06;4952153;28;20689;-84
2023/04/01 05:37:35;;;;;;;16.30;9.07;;;;;;;9.36;100.00;-18280.13;4953137;28;20038;-83
2023/04/01 05:40:01;;;;;;;16.90;10.43;;;;;;;9.38;100.00;-18280.53;4946301;28;20277;-84
2023/04/01 05:42:26;;;;;;;15.55;8.98;;;;;;;9.34;100.00;-18279.56;4963287;28;20047;-84
2023/04/01 05:44:52;;;;;;;15.63;9.73;;;;;;;9.40;100.00;-18281.06;4953912;28;20618;-84
2023/04/01 05:47:17;;;;;;;15.80;9.32;;;;;;;9.34;100.00;-18279.44;4946638;28;20078;-84
2023/04/01 05:49:43;;;;;;;17.58;10.55;;;;;;;9.33;100.00;-18279.28;4951861;28;20090;-84
2023/04/01 05:52:08;;;;;;;17.42;9.98;;;;;;;9.33;100.00;-18279.16;4956817;28;20040;-85
2023/04/01 05:54:34;;;;;;;16.38;10.77;;;;;;;9.34;100.00;-18279.44;4945887;28;20047;-83
2023/04/01 05:56:59;;;;;;;19.45;10.52;;;;;;;9.38;100.00;-18280.53;4952098;28;20510;-84
2023/04/01 05:59:24;;;;;;;15.85;9.82;;;;;;;9.38;100.00;-18280.66;4945951;28;20109;-83
2023/04/01 06:01:50;;;;;;;18.73;10.73;;;;;;;9.39;100.00;-18280.81;4948322;28;20598;-83
2023/04/01 06:04:16;;;;;;;18.98;11.18;;;;;;;9.39;100.00;-18280.94;4947920;28;20044;-84
2023/04/01 06:06:42;;;;;;;16.75;9.93;;;;;;;9.34;100.00;-18279.56;4951042;28;20047;-84
2023/04/01 06:09:12;;;;;;;17.80;11.65;;;;;;;9.35;100.00;-18279.84;4950889;28;20039;-83
2023/04/01 06:11:55;;;;;;;18.45;11.45;;;;;;;9.39;100.00;-18280.81;4965935;28;20122;-84
2023/04/01 06:14:29;;;;;;;19.67;10.18;;;;;;;9.35;100.00;-18279.84;4950708;28;20162;-85
2023/04/01 06:17:04;;;;;;;17.25;10.20;;;;;;;9.34;100.00;-18279.56;4942982;28;20051;-84
2023/04/01 06:19:44;;;;;;;18.33;10.90;;;;;;;9.35;100.00;-18279.84;4951682;28;20047;-85
2023/04/01 06:22:16;;;;;;;18.30;10.02;;;;;;;9.38;100.00;-18280.53;4939942;28;20046;-83
2023/04/01 06:24:51;;;;;;;19.50;9.82;;;;;;;9.33;100.00;-18279.16;4953487;28;20039;-85
2023/04/01 06:27:53;;;;;;;19.25;11.32;;;;;;;9.37;100.00;-18280.25;4963220;28;20060;-84
2023/04/01 06:30:48;;;;;;;18.77;11.77;;;;;;;9.35;100.00;-18279.69;4941719;28;20047;-85
2023/04/01 06:33:34;;;;;;;19.17;10.80;;;;;;;9.37;100.00;-18280.25;4953749;28;20117;-84
2023/04/01 06:36:27;;;;;;;19.40;11.52;;;;;;;9.38;100.00;-18280.53;4955861;28;20070;-83
2023/04/01 06:39:03;;;;;;;16.25;9.07;;;;;;;9.37;100.00;-18280.25;4980552;28;20125;-85
2023/04/01 06:41:40;;;;;;;16.98;10.50;;;;;;;9.37;100.00;-18280.25;4952498;28;20324;-86
2023/04/01 06:44:25;;;;;;;16.23;9.80;;;;;;;9.43;100.00;-18281.91;4949190;28;20039;-84
2023/04/01 06:46:58;;;;;;;18.20;9.75;;;;;;;9.37;100.00;-18280.25;4945927;28;20047;-85
2023/04/01 06:49:36;;;;;;;17.15;10.20;;;;;;;9.35;100.00;-18279.84;4943715;28;20052;-85
2023/04/01 06:52:27;;;;;;;18.50;10.80;;;;;;;9.38;100.00;-18280.66;4933531;28;20043;-85
2023/04/01 06:55:01;;;;;;;20.15;12.32;;;;;;;9.31;100.00;-18278.75;4940338;28;20043;-85
2023/04/01 06:57:45;;;;;;;25.75;14.52;;;;;;;9.33;100.00;-18279.16;4950132;28;20070;-84
2023/04/01 07:00:37;;;;;;;20.60;12.30;;;;;;;9.34;100.00;-18279.56;4962700;28;20511;-84
2023/04/01 07:03:05;;;;;;;16.55;10.80;;;;;;;9.34;100.00;-18279.44;4962730;28;20050;-84
2023/04/01 07:05:32;;;;;;;15.27;8.98;;;;;;;9.40;100.00;-18281.06;4958667;28;20046;-84
2023/04/01 07:08:01;;;;;;;16.25;9.07;;;;;;;9.47;100.00;-18283.00;4952549;28;20043;-84
2023/04/01 07:10:36;;;;;;;;;;;;;;;9.48;100.00;-18283.28;4955946;28;20047;-84
2023/04/01 07:13:09;;;;;;;15.23;8.52;;;;;;;9.45;100.00;-18282.44;4966784;28;19991;-82
2023/04/01 07:15:41;;;;;;;12.05;8.43;;;;;;;9.48;100.00;-18283.41;4956475;28;20503;-84
2023/04/01 07:18:16;;;;;;;18.10;9.65;;;;;;;9.51;100.00;-18284.09;4967473;28;20042;-83
2023/04/01 07:20:41;;;;;;;17.65;9.80;;;;;;;9.59;100.00;-18286.31;4969480;28;20502;-83
2023/04/01 07:23:19;;;;;;;13.90;9.25;;;;;;;9.61;100.00;-18286.72;4970075;28;20046;-84
2023/04/01 07:25:50;;;;;;;16.08;9.68;;;;;;;9.63;100.00;-18287.41;4973546;28;20090;-84
2023/04/01 07:28:16;;;;;;;15.07;9.70;;;;;;;9.66;100.00;-18288.09;4969208;28;20043;-85
2023/04/01 07:31:03;;;;;;;15.07;9.93;;;;;;;9.69;100.00;-18288.91;4955817;28;20039;-84
2023/04/01 07:33:28;;;;;;;13.00;7.93;;;;;;;9.71;100.00;-18289.59;4965308;28;20540;-83
2023/04/01 07:36:01;;;;;;;11.98;7.95;;;;;;;9.73;100.00;-18289.88;4949446;28;20055;-84
2023/04/01 07:38:51;;;;;;;15.43;10.25;;;;;;;9.79;100.00;-18291.66;4971795;28;20106;-83
2023/04/01 07:41:34;;;;;;;13.13;8.65;;;;;;;9.80;100.00;-18291.94;4964937;28;20035;-84
2023/04/01 07:44:06;;;;;;;12.95;9.40;;;;;;;9.82;100.00;-18292.34;4957147;28;20135;-84
2023/04/01 07:46:31;;;;;;;13.57;7.20;;;;;;;9.79;100.00;-18291.53;4984611;28;20142;-84
2023/04/01 07:49:15;;;;;;;12.65;8.80;;;;;;;9.82;100.00;-18292.50;4980672;28;20047;-84
2023/04/01 07:52:01;;;;;;;9.85;6.93;;;;;;;9.81;100.00;-18292.06;4977377;28;20125;-84
2023/04/01 07:54:46;;;;;;;11.85;8.10;;;;;;;9.87;100.00;-18293.72;4982626;28;20106;-83
2023/04/01 07:57:23;;;;;;;13.25;8.82;;;;;;;9.90;100.00;-18294.56;4975366;28;20035;-84
2023/04/01 07:59:53;;;;;;;14.18;8.88;;;;;;;9.86;100.00;-18293.59;4944511;28;20047;-87
2023/04/01 08:02:33;;;;;;;13.02;8.48;;;;;;;9.92;100.00;-18295.25;4964093;28;20044;-83
2023/04/01 08:05:06;;;;;;;14.02;8.85;;;;;;;9.94;100.00;-18295.78;4948740;28;20050;-85
2023/04/01 08:07:41;;;;;;;10.23;6.72;;;;;;;9.94;100.00;-18295.66;4962259;28;20051;-85
2023/04/01 08:10:19;;;;;;;10.07;6.30;;;;;;;9.86;100.00;-18293.44;4948864;28;20043;-83
2023/04/01 08:12:57;;;;;;;11.93;6.60;;;;;;;9.84;100.00;-18293.03;4952596;28;20263;-85
2023/04/01 08:15:55;;;;;;;9.63;6.13;;;;;;;9.90;100.00;-18294.69;4965972;28;20626;-85
2023/04/01 08:18:38;;;;;;;10.15;7.07;;;;;;;9.87;100.00;-18293.88;4951229;28;20085;-85
2023/04/01 08:21:14;;;;;;;10.27;7.57;;;;;;;9.93;100.00;-18295.38;4955431;28;20047;-83
2023/04/01 08:23:47;;;;;;;9.30;6.72;;;;;;;9.95;100.00;-18295.94;4945660;28;20562;-83
2023/04/01 08:26:29;;;;;;;13.20;7.90;;;;;;;9.99;100.00;-18297.03;4951094;28;22324;-83
2023/04/01 08:29:10;;;;;;;10.20;6.35;;;;;;;10.01;100.00;-18297.56;4952145;28;20150;-84
2023/04/01 08:31:55;;;;;;;9.48;6.38;;;;;;;9.94;100.00;-18295.78;4956204;28;20102;-84
2023/04/01 08:34:26;;;;;;;11.60;7.47;;;;;;;10.00;100.00;-18297.31;4946140;28;20062;-83
2023/04/01 08:37:08;;;;;;;11.20;7.13;;;;;;;10.07;100.00;-18299.22;4950623;28;20064;-84
2023/04/01 08:39:33;;;;;;;9.95;6.47;;;;;;;10.13;100.00;-18300.88;4966230;28;20043;-84
2023/04/01 08:42:16;;;;;;;10.93;6.25;;;;;;;10.08;100.00;-18299.50;4948945;28;20558;-82
2023/04/01 08:45:11;;;;;;;12.15;7.75;;;;;;;10.06;100.00;-18298.94;4943990;28;20051;-84
2023/04/01 08:48:08;;;;;;;12.07;7.85;;;;;;;10.11;100.00;-18300.31;4961915;28;20046;-84
2023/04/01 08:51:15;;;;;;;13.32;8.68;;;;;;;10.15;100.00;-18301.28;4953285;28;20110;-84
2023/04/01 08:54:07;;;;;;;13.32;8.27;;;;;;;10.15;100.00;-18301.41;4950175;28;20131;-85
2023/04/01 08:57:00;;;;;;;12.52;7.57;;;;;;;10.13;100.00;-18300.88;4965096;28;20070;-84
2023/04/01 09:00:21;;;;;;;14.52;8.82;;;;;;;10.09;100.00;-18299.78;4963872;28;20055;-84
2023/04/01 09:02:49;;;;;;;13.88;8.85;;;;;;;10.08;100.00;-18299.50;4970454;28;20054;-85
2023/04/01 09:05:31;;;;;;;17.63;10.82;;;;;;;10.15;100.00;-18301.41;4962669;28;20048;-84
2023/04/01 09:08:05;;;;;;;17.27;10.02;;;;;;;10.20;100.00;-18302.66;4951893;28;20062;-82
2023/04/01 09:10:40;;;;;;;17.33;11.00;;;;;;;10.26;100.00;-18304.31;4973458;28;20506;-84
2023/04/01 09:13:18;;;;;;;16.27;10.15;;;;;;;10.27;100.00;-18304.44;4967883;28;20043;-84
2023/04/01 09:16:02;;;;;;;15.75;9.35;;;;;;;10.35;100.00;-18306.78;4967855;28;20039;-84
2023/04/01 09:18:47;;;;;;;15.38;8.70;;;;;;;10.27;100.00;-18304.44;4968204;28;20051;-84
2023/04/01 09:21:22;;;;;;;18.52;9.35;;;;;;;10.30;100.00;-18305.28;4948043;28;20411;-84
2023/04/01 09:24:09;;;;;;;15.93;9.38;;;;;;;10.34;100.00;-18306.50;4952634;28;20047;-84
2023/04/01 09:26:57;;;;;;;15.88;9.23;;;;;;;10.39;100.00;-18307.88;4974768;28;20039;-84
2023/04/01 09:29:42;;;;;;;14.07;7.90;;;;;;;10.39;100.00;-18307.75;4969669;28;20069;-83
2023/04/01 09:32:22;;;;;;;14.88;8.52;;;;;;;10.35;100.00;-18306.78;4952784;28;20135;-84
2023/04/01 09:34:57;;;;;;;11.32;7.40;;;;;;;10.40;100.00;-18308.03;4962960;28;20056;-85
2023/04/01 09:37:53;;;;;;;11.38;7.60;;;;;;;10.47;100.00;-18309.94;4955650;28;20042;-85
2023/04/01 09:40:42;;;;;;;12.98;8.60;;;;;;;10.55;100.00;-18312.16;4981616;28;20050;-85
2023/04/01 09:43:25;;;;;;;13.85;8.68;;;;;;;10.64;100.00;-18314.34;4968426;28;20041;-84
2023/04/01 09:45:58;;;;;;;11.82;7.90;;;;;;;10.66;100.00;-18314.91;4964212;28;20066;-84
2023/04/01 09:48:43;;;;;;;11.95;7.60;;;;;;;10.54;100.00;-18311.88;4944989;28;20047;-84
2023/04/01 09:51:21;;;;;;;13.60;8.45;;;;;;;10.64;100.00;-18314.34;4962925;28;20062;-85
2023/04/01 09:54:16;;;;;;;13.00;8.20;;;;;;;10.57;100.00;-18312.69;4951156;28;20126;-84
2023/04/01 09:56:47;;;;;;;10.90;7.53;;;;;;;10.61;100.00;-18313.78;4983235;28;20117;-81
2023/04/01 09:59:35;;;;;;;12.73;8.60;;;;;;;10.76;100.00;-18317.78;4986160;28;20035;-84
2023/04/01 10:02:30;;;;;;;12.18;7.60;;;;;;;10.78;100.00;-18318.19;4952298;28;20035;-84
2023/04/01 10:05:13;;;;;;;11.60;7.13;;;;;;;10.75;100.00;-18317.38;4951757;28;20141;-84
2023/04/01 10:08:19;;;;;;;10.55;6.82;;;;;;;10.69;100.00;-18315.72;4947703;28;21414;-84
2023/04/01 10:10:54;;;;;;;12.20;7.82;;;;;;;10.82;100.00;-18319.28;4940273;28;20047;-83
2023/04/01 10:13:34;;;;;;;15.52;8.63;;;;;;;10.87;100.00;-18320.66;4963993;28;20050;-83
2023/04/01 10:16:25;;;;;;;13.82;8.93;;;;;;;10.88;100.00;-18320.81;4952787;28;20097;-81
2023/04/01 10:19:28;;;;;;;10.15;7.22;;;;;;;10.95;100.00;-18322.88;4947378;28;20057;-82
2023/04/01 10:22:11;;;;;;;7.80;6.20;;;;;;;10.84;100.00;-18319.97;4948700;28;20043;-83
2023/04/01 10:25:00;;;;;;;8.02;6.45;;;;;;;10.88;100.00;-18320.94;4966070;28;20510;-83
2023/04/01 10:27:44;;;;;;;9.65;7.03;;;;;;;10.75;100.00;-18317.38;4967513;28;20118;-81
2023/04/01 10:30:15;;;;;;;8.68;7.22;;;;;;;10.69;100.00;-18315.84;4950625;28;20109;-84
2023/04/01 10:33:01;;;;;;;9.73;7.22;;;;;;;10.75;100.00;-18317.38;4968465;28;20050;-83
2023/04/01 10:35:48;;;;;;;11.77;8.55;;;;;;;10.83;100.00;-18319.56;4950812;28;20059;-82
2023/04/01 10:38:46;;;;;;;10.38;8.25;;;;;;;10.96;100.00;-18323.00;4962976;28;20432;-84
2023/04/01 10:41:17;;;;;;;9.27;6.90;;;;;;;10.82;100.00;-18319.28;4951645;28;20106;-83
2023/04/01 10:43:55;;;;;;;9.25;7.47;;;;;;;10.78;100.00;-18318.31;4951695;28;20132;-83
2023/04/01 10:46:48;;;;;;;10.10;7.32;;;;;;;10.82;100.00;-18319.28;4960970;28;20062;-83
2023/04/01 10:49:34;;;;;;;9.23;6.63;;;;;;;10.87;100.00;-18320.66;4943610;28;20050;-83
2023/04/01 10:52:16;;;;;;;11.90;7.40;;;;;;;11.01;100.00;-18324.50;4968230;28;20074;-84
2023/04/01 10:55:18;;;;;;;9.30;6.60;;;;;;;11.14;100.00;-18327.81;4974911;28;20055;-84
2023/04/01 10:58:05;;;;;;;9.45;6.43;;;;;;;10.89;100.00;-18321.22;4949987;28;20045;-83
2023/04/01 11:01:08;;;;;;;10.65;7.70;;;;;;;11.03;100.00;-18325.06;4956777;28;20091;-84
2023/04/01 11:04:12;;;;;;;9.65;6.90;;;;;;;11.17;100.00;-18328.63;4963408;28;20105;-83
2023/04/01 11:06:59;;;;;;;9.20;7.45;;;;;;;11.34;100.00;-18333.31;4949066;28;20051;-82
2023/04/01 11:09:36;;;;;;;12.77;8.40;;;;;;;11.39;100.00;-18334.53;4965389;28;20070;-84
2023/04/01 11:12:56;;;;;;;10.43;8.25;;;;;;;11.37;100.00;-18334.13;4947985;28;20046;-83
2023/04/01 11:15:53;;;;;;;10.73;7.85;;;;;;;11.60;100.00;-18340.31;4945110;28;20058;-84
2023/04/01 11:18:27;;;;;;;8.90;7.20;;;;;;;11.69;100.00;-18342.63;4940196;28;20069;-84
2023/04/01 11:21:03;;;;;;;11.13;7.65;;;;;;;11.85;100.00;-18346.88;4950811;28;20096;-83
2023/04/01 11:23:31;;;;;;;7.93;6.15;;;;;;;11.73;100.00;-18343.72;4980651;28;20159;-83
2023/04/01 11:26:09;;;;;;;9.35;6.75;;;;;;;11.83;100.00;-18346.47;4960231;28;20567;-83
2023/04/01 11:28:53;;;;;;;9.80;7.13;;;;;;;11.75;100.00;-18344.28;4965472;28;20498;-83
2023/04/01 11:31:25;;;;;;;7.13;5.05;;;;;;;11.76;100.00;-18344.56;4949444;28;20470;-82
2023/04/01 11:34:05;;;;;;;6.80;5.55;;;;;;;11.70;100.00;-18343.03;4950193;28;20043;-82
2023/04/01 11:36:52;;;;;;;6.25;5.28;;;;;;;11.86;100.00;-18347.31;4951248;28;20043;-81
2023/04/01 11:39:36;;;;;;;7.93;6.00;;;;;;;12.10;100.00;-18353.75;4951421;28;20055;-82
2023/04/01 11:42:10;;;;;;;5.38;4.13;;;;;;;12.10;100.00;-18353.75;4951854;28;20039;-82
2023/04/01 11:44:49;;;;;;;5.63;3.95;;;;;;;12.21;100.00;-18356.50;4963048;28;20602;-81
2023/04/01 11:47:34;;;;;;;5.38;3.92;;;;;;;12.22;100.00;-18356.78;4957602;28;20549;-82
2023/04/01 11:50:27;;;;;;;7.60;4.30;;;;;;;12.19;100.00;-18356.09;4949616;28;20162;-81